createdAt,value
2023-07-08T00:00:22.180Z,23.30
2023-07-08T00:10:23.799Z,23.00
2023-07-08T00:20:25.222Z,22.70
2023-07-08T00:30:26.842Z,22.60
2023-07-08T00:40:28.326Z,22.40
2023-07-08T00:50:29.761Z,22.30
2023-07-08T01:00:31.186Z,22.20
2023-07-08T01:10:32.650Z,22.20
2023-07-08T01:20:34.107Z,22.10
2023-07-08T01:30:35.556Z,22.00
2023-07-08T01:40:37.009Z,21.80
2023-07-08T01:50:38.480Z,21.70
2023-07-08T02:00:39.907Z,21.50
2023-07-08T02:10:41.326Z,21.40
2023-07-08T02:20:42.809Z,21.30
2023-07-08T02:30:44.243Z,21.30
2023-07-08T02:40:45.688Z,23.00
2023-07-08T02:50:47.144Z,23.60
2023-07-08T03:00:48.596Z,23.70
2023-07-08T03:10:50.103Z,23.60
2023-07-08T03:20:51.641Z,23.50
2023-07-08T03:30:53.241Z,23.50
2023-07-08T03:40:54.788Z,23.50
2023-07-08T03:50:56.205Z,23.70
2023-07-08T04:00:57.760Z,23.50
2023-07-08T04:10:59.559Z,23.70
2023-07-08T04:31:05.626Z,23.90
2023-07-08T04:41:07.103Z,23.90
2023-07-08T04:51:08.569Z,24.20
2023-07-08T05:01:10.026Z,24.30
2023-07-08T05:11:11.484Z,24.40
2023-07-08T05:21:12.907Z,24.60
2023-07-08T05:31:14.465Z,24.80
2023-07-08T05:41:15.947Z,25.10
2023-07-08T05:51:17.392Z,25.20
2023-07-08T06:01:19.924Z,25.60
2023-07-08T06:11:21.404Z,26.00
2023-07-08T06:21:22.841Z,26.20
2023-07-08T06:31:24.325Z,26.50
2023-07-08T06:41:25.782Z,26.80
2023-07-08T07:01:29.271Z,27.10
2023-07-08T07:11:30.753Z,27.20
2023-07-08T07:21:32.194Z,27.30
2023-07-08T07:31:33.662Z,27.30
2023-07-08T07:41:35.157Z,27.80
2023-07-08T07:51:36.601Z,28.10
2023-07-08T08:01:38.066Z,28.20
2023-07-08T08:11:39.571Z,28.30
2023-07-08T08:21:41.011Z,28.50
2023-07-08T08:31:42.438Z,28.60
2023-07-08T08:41:43.870Z,28.80
2023-07-08T08:51:45.296Z,28.80
2023-07-08T09:01:46.728Z,29.10
2023-07-08T09:11:48.164Z,29.30
2023-07-08T09:21:49.599Z,29.50
2023-07-08T09:31:51.043Z,29.70
2023-07-08T09:41:52.503Z,29.90
2023-07-08T09:51:53.939Z,29.90
2023-07-08T10:01:55.447Z,30.10
2023-07-08T10:11:56.981Z,30.20
2023-07-08T10:21:58.435Z,29.90
2023-07-08T10:31:59.937Z,30.10
2023-07-08T10:42:01.413Z,30.30
2023-07-08T10:52:02.849Z,30.20
2023-07-08T11:02:04.330Z,30.20
2023-07-08T11:12:05.794Z,30.30
2023-07-08T11:22:07.230Z,30.50
2023-07-08T11:32:08.747Z,30.20
2023-07-08T11:42:10.197Z,30.40
2023-07-08T11:52:11.623Z,30.50
2023-07-08T12:02:13.071Z,30.50
2023-07-08T12:12:14.513Z,30.30
2023-07-08T12:22:15.940Z,30.20
2023-07-08T12:32:17.396Z,30.20
2023-07-08T12:42:18.828Z,30.40
2023-07-08T12:52:20.297Z,30.20
2023-07-08T13:02:21.900Z,30.40
2023-07-08T13:12:23.502Z,30.50
2023-07-08T13:22:25.103Z,30.50
2023-07-08T13:32:26.545Z,30.50
2023-07-08T13:42:27.975Z,30.60
2023-07-08T13:52:29.422Z,30.70
2023-07-08T14:02:30.927Z,30.60
2023-07-08T14:12:32.495Z,30.90
2023-07-08T14:22:33.923Z,30.90
2023-07-08T14:32:35.389Z,30.90
2023-07-08T14:42:36.860Z,30.80
2023-07-08T14:52:38.303Z,31.00
2023-07-08T15:02:39.775Z,31.20
2023-07-08T15:12:41.225Z,31.40
2023-07-08T15:22:42.645Z,31.30
2023-07-08T15:32:44.119Z,31.50
2023-07-08T15:42:45.839Z,31.60
2023-07-08T15:52:47.266Z,31.80
2023-07-08T16:02:48.746Z,31.70
2023-07-08T16:12:50.333Z,31.70
2023-07-08T16:22:51.847Z,31.50
2023-07-08T16:32:53.359Z,31.60
2023-07-08T16:42:54.892Z,31.70
2023-07-08T16:52:56.320Z,31.70
2023-07-08T17:02:57.804Z,31.60
2023-07-08T17:12:59.284Z,31.80
2023-07-08T17:23:00.712Z,31.70
2023-07-08T17:33:02.180Z,31.70
2023-07-08T17:43:03.620Z,31.70
2023-07-08T17:53:05.030Z,31.70
2023-07-08T18:03:06.556Z,31.80
2023-07-08T18:13:08.030Z,31.80
2023-07-08T18:23:10.813Z,31.80
2023-07-08T18:33:12.388Z,31.70
2023-07-08T18:43:13.824Z,31.70
2023-07-08T18:53:15.258Z,31.70
2023-07-08T19:03:16.716Z,31.80
2023-07-08T19:13:18.179Z,31.80
2023-07-08T19:23:19.640Z,31.70
2023-07-08T19:33:21.086Z,31.70
2023-07-08T19:43:22.552Z,31.70
2023-07-08T19:53:24.013Z,31.60
2023-07-08T20:03:25.530Z,31.70
2023-07-08T20:13:27.087Z,31.60
2023-07-08T20:23:28.546Z,31.80
2023-07-08T20:33:29.984Z,30.20
2023-07-08T20:43:31.422Z,28.70
2023-07-08T20:53:32.889Z,28.40
2023-07-08T21:03:34.358Z,28.20
2023-07-08T21:13:35.823Z,28.00
2023-07-08T21:23:40.446Z,27.90
2023-07-08T21:33:41.905Z,27.70
2023-07-08T21:43:43.343Z,27.70
2023-07-08T21:53:44.769Z,27.50
2023-07-08T22:03:46.317Z,27.30
2023-07-08T22:13:48.119Z,27.20
2023-07-08T22:23:49.680Z,27.20
2023-07-08T22:33:51.146Z,27.00
2023-07-08T22:43:52.584Z,26.90
2023-07-08T22:53:54.036Z,26.70
2023-07-08T23:03:55.501Z,26.80
2023-07-08T23:13:56.982Z,26.50
2023-07-08T23:23:58.510Z,26.30
2023-07-08T23:33:59.952Z,26.20
2023-07-08T23:44:01.531Z,26.20
2023-07-08T23:54:02.946Z,25.90
